createdAt,value
2022-10-31T00:01:01.189Z,21.50
2022-10-31T00:03:28.236Z,20.60
2022-10-31T00:05:55.388Z,23.70
2022-10-31T00:08:22.550Z,21.50
2022-10-31T00:10:49.930Z,27.00
2022-10-31T00:13:17.331Z,24.90
2022-10-31T00:15:44.712Z,22.30
2022-10-31T00:18:12.449Z,25.40
2022-10-31T00:20:40.527Z,24.20
2022-10-31T00:23:08.284Z,23.10
2022-10-31T00:25:37.709Z,26.70
2022-10-31T00:28:06.097Z,29.60
2022-10-31T00:30:34.050Z,23.80
2022-10-31T00:33:02.297Z,26.20
2022-10-31T00:35:29.978Z,24.90
2022-10-31T00:37:57.230Z,24.90
2022-10-31T00:40:24.372Z,25.60
2022-10-31T00:42:52.383Z,23.00
2022-10-31T00:45:19.610Z,23.40
2022-10-31T00:47:46.799Z,24.70
2022-10-31T00:50:14.027Z,26.30
2022-10-31T00:52:42.197Z,23.40
2022-10-31T00:55:10.446Z,25.20
2022-10-31T00:57:37.909Z,22.30
2022-10-31T01:00:06.181Z,24.30
2022-10-31T01:02:33.609Z,22.40
2022-10-31T01:05:01.558Z,19.80
2022-10-31T01:07:28.757Z,21.90
2022-10-31T01:09:55.905Z,21.50
2022-10-31T01:12:24.710Z,23.80
2022-10-31T01:14:51.845Z,20.50
2022-10-31T01:17:19.528Z,22.00
2022-10-31T01:19:47.889Z,23.50
2022-10-31T01:22:15.147Z,16.40
2022-10-31T01:24:42.330Z,16.90
2022-10-31T01:27:09.363Z,20.90
2022-10-31T01:29:36.581Z,19.70
2022-10-31T01:32:03.933Z,25.50
2022-10-31T01:34:32.129Z,21.00
2022-10-31T01:36:59.178Z,22.70
2022-10-31T01:39:26.307Z,25.90
2022-10-31T01:41:55.539Z,21.80
2022-10-31T01:44:23.720Z,20.70
2022-10-31T01:46:58.388Z,19.30
2022-10-31T01:49:33.497Z,22.10
2022-10-31T01:52:08.648Z,19.90
2022-10-31T01:54:39.394Z,21.10
2022-10-31T01:57:09.295Z,23.90
2022-10-31T01:59:38.352Z,24.50
2022-10-31T02:02:05.809Z,26.00
2022-10-31T02:04:33.334Z,26.10
2022-10-31T02:07:04.431Z,24.10
2022-10-31T02:09:33.207Z,24.80
2022-10-31T02:12:03.804Z,21.50
2022-10-31T02:14:31.857Z,21.60
2022-10-31T02:16:59.401Z,19.80
2022-10-31T02:20:04.052Z,19.30
2022-10-31T02:22:58.709Z,19.30
2022-10-31T02:25:47.906Z,23.90
2022-10-31T02:28:36.666Z,22.00
2022-10-31T02:31:08.883Z,19.40
2022-10-31T02:33:47.469Z,21.90
2022-10-31T02:36:23.919Z,22.60
2022-10-31T02:39:10.285Z,23.70
2022-10-31T02:42:18.087Z,21.00
2022-10-31T02:44:49.566Z,21.40
2022-10-31T02:47:19.311Z,23.90
2022-10-31T02:49:50.422Z,25.10
2022-10-31T02:52:23.190Z,23.50
2022-10-31T02:54:50.471Z,21.40
2022-10-31T02:57:21.397Z,18.20
2022-10-31T02:59:51.327Z,20.50
2022-10-31T03:02:31.000Z,21.10
2022-10-31T03:05:06.902Z,21.00
2022-10-31T03:07:52.708Z,18.40
2022-10-31T03:10:32.825Z,20.60
2022-10-31T03:15:58.093Z,22.60
2022-10-31T03:18:31.126Z,23.40
2022-10-31T03:21:06.968Z,18.00
2022-10-31T03:23:37.059Z,17.80
2022-10-31T03:26:06.800Z,19.10
2022-10-31T03:28:45.537Z,19.70
2022-10-31T03:31:17.517Z,22.40
2022-10-31T03:33:45.990Z,21.20
2022-10-31T03:36:16.326Z,21.00
2022-10-31T03:38:44.518Z,20.40
2022-10-31T03:41:15.873Z,21.40
2022-10-31T03:43:54.370Z,21.90
2022-10-31T03:46:21.747Z,19.60
2022-10-31T03:48:50.622Z,17.70
2022-10-31T03:51:24.229Z,19.60
2022-10-31T03:54:03.756Z,17.00
2022-10-31T03:56:35.091Z,20.90
2022-10-31T03:59:07.421Z,21.70
2022-10-31T04:01:40.048Z,18.50
2022-10-31T04:04:08.461Z,19.20
2022-10-31T04:06:37.157Z,22.20
2022-10-31T04:09:06.192Z,20.60
2022-10-31T04:11:37.788Z,17.80
2022-10-31T04:14:39.825Z,20.40
2022-10-31T04:17:10.310Z,18.00
2022-10-31T04:19:39.470Z,18.80
2022-10-31T04:22:06.731Z,17.30
2022-10-31T04:24:34.169Z,17.30
2022-10-31T04:27:01.315Z,18.70
2022-10-31T04:29:28.968Z,16.20
2022-10-31T04:31:56.748Z,18.00
2022-10-31T04:34:24.109Z,16.20
2022-10-31T04:36:52.365Z,15.90
2022-10-31T04:39:24.034Z,12.20
2022-10-31T04:42:13.761Z,19.50
2022-10-31T04:44:40.796Z,17.70
2022-10-31T04:47:08.693Z,19.60
2022-10-31T04:49:36.872Z,23.00
2022-10-31T04:52:04.044Z,19.30
2022-10-31T04:54:31.174Z,21.60
2022-10-31T04:57:24.271Z,19.20
2022-10-31T04:59:51.520Z,19.40
2022-10-31T05:02:18.733Z,18.10
2022-10-31T05:04:51.749Z,21.10
2022-10-31T05:07:19.257Z,16.70
2022-10-31T05:09:46.351Z,21.00
2022-10-31T05:12:13.710Z,22.10
2022-10-31T05:15:13.629Z,19.10
2022-10-31T05:17:59.892Z,18.90
2022-10-31T05:20:50.013Z,21.30
2022-10-31T05:23:24.842Z,20.40
2022-10-31T05:25:51.988Z,18.70
2022-10-31T05:28:19.155Z,17.50
2022-10-31T05:30:46.238Z,13.00
2022-10-31T05:33:15.473Z,18.10
2022-10-31T05:36:01.370Z,16.50
2022-10-31T05:38:37.317Z,20.00
2022-10-31T05:41:25.292Z,16.50
2022-10-31T05:43:54.171Z,22.00
2022-10-31T05:46:24.349Z,18.70
2022-10-31T05:49:14.558Z,19.60
2022-10-31T05:52:00.484Z,20.80
2022-10-31T05:54:35.081Z,21.20
2022-10-31T05:57:02.198Z,17.80
2022-10-31T05:59:29.265Z,19.70
2022-10-31T06:01:56.494Z,20.80
2022-10-31T06:04:46.869Z,18.20
2022-10-31T06:07:14.163Z,22.10
2022-10-31T06:09:41.330Z,18.10
2022-10-31T06:12:08.780Z,22.60
2022-10-31T06:14:54.759Z,21.70
2022-10-31T06:17:22.120Z,18.00
2022-10-31T06:22:22.790Z,20.80
2022-10-31T06:24:50.329Z,17.00
2022-10-31T06:27:29.049Z,18.40
2022-10-31T06:29:56.521Z,19.60
2022-10-31T06:32:32.312Z,16.00
2022-10-31T06:35:00.476Z,17.20
2022-10-31T06:37:27.574Z,18.40
2022-10-31T06:39:59.966Z,21.50
2022-10-31T06:42:27.023Z,17.90
2022-10-31T06:44:54.659Z,17.90
2022-10-31T06:47:56.833Z,14.50
2022-10-31T06:50:32.553Z,20.80
2022-10-31T06:53:00.215Z,15.90
2022-10-31T06:55:28.527Z,17.80
2022-10-31T06:58:02.030Z,17.80
2022-10-31T07:00:32.191Z,19.00
2022-10-31T07:03:11.890Z,21.10
2022-10-31T07:05:39.685Z,20.70
2022-10-31T07:08:09.872Z,19.80
2022-10-31T07:10:40.486Z,16.50
2022-10-31T07:13:15.945Z,16.70
2022-10-31T07:15:47.395Z,17.60
2022-10-31T07:18:14.745Z,16.80
2022-10-31T07:20:43.323Z,16.50
2022-10-31T07:23:12.224Z,20.30
2022-10-31T07:25:40.901Z,20.00
2022-10-31T07:28:13.047Z,17.60
2022-10-31T07:30:40.746Z,19.00
2022-10-31T07:33:09.824Z,17.30
2022-10-31T07:35:57.566Z,16.90
2022-10-31T07:38:25.546Z,18.40
2022-10-31T07:40:56.584Z,18.10
2022-10-31T07:43:24.127Z,16.00
2022-10-31T07:46:24.246Z,17.10
2022-10-31T07:49:09.931Z,16.30
2022-10-31T07:51:58.309Z,16.60
2022-10-31T07:54:44.286Z,17.10
2022-10-31T07:57:11.926Z,16.00
2022-10-31T07:59:39.306Z,15.10
2022-10-31T08:02:07.066Z,17.90
2022-10-31T08:05:01.653Z,18.80
2022-10-31T08:07:47.445Z,16.80
2022-10-31T08:10:17.347Z,16.40
2022-10-31T08:12:44.902Z,13.70
2022-10-31T08:15:12.983Z,17.80
2022-10-31T08:17:40.327Z,15.60
2022-10-31T08:20:08.738Z,13.80
2022-10-31T08:22:43.748Z,19.50
2022-10-31T08:25:11.525Z,19.20
2022-10-31T08:27:39.430Z,16.50
2022-10-31T08:30:07.771Z,14.10
2022-10-31T08:32:36.638Z,19.80
2022-10-31T08:35:22.936Z,14.80
2022-10-31T08:38:14.346Z,15.00
2022-10-31T08:40:42.466Z,13.30
2022-10-31T08:43:17.591Z,13.50
2022-10-31T08:45:46.228Z,16.30
2022-10-31T08:48:18.890Z,13.60
2022-10-31T08:50:47.373Z,12.20
2022-10-31T08:53:17.214Z,13.40
2022-10-31T08:55:48.367Z,16.10
2022-10-31T08:58:26.573Z,11.60
2022-10-31T09:01:00.631Z,14.10
2022-10-31T09:03:30.471Z,16.10
2022-10-31T09:06:01.707Z,12.70
2022-10-31T09:08:31.351Z,12.20
2022-10-31T09:10:59.309Z,14.90
2022-10-31T09:13:46.958Z,17.10
2022-10-31T09:16:53.161Z,15.90
2022-10-31T09:19:22.927Z,13.30
2022-10-31T09:21:55.594Z,10.40
2022-10-31T09:24:23.263Z,11.20
2022-10-31T09:26:50.732Z,14.60
2022-10-31T09:29:20.697Z,12.40
2022-10-31T09:31:51.677Z,10.30
2022-10-31T09:34:45.280Z,9.80
2022-10-31T09:37:16.180Z,14.90
2022-10-31T09:39:43.433Z,12.90
2022-10-31T09:42:37.213Z,13.60
2022-10-31T09:45:28.117Z,11.40
2022-10-31T09:48:35.502Z,15.50
2022-10-31T09:51:15.870Z,8.00
2022-10-31T09:53:59.202Z,13.70
2022-10-31T09:56:27.371Z,12.20
2022-10-31T09:58:59.574Z,10.20
2022-10-31T10:01:48.795Z,15.00
2022-10-31T10:04:43.396Z,13.10
2022-10-31T10:07:42.504Z,9.90
2022-10-31T10:10:20.405Z,11.80
2022-10-31T10:13:37.425Z,11.30
2022-10-31T10:16:20.847Z,11.00
2022-10-31T10:19:14.006Z,10.40
2022-10-31T10:21:50.068Z,12.70
2022-10-31T10:24:35.335Z,8.90
2022-10-31T10:27:43.575Z,10.90
2022-10-31T10:30:22.190Z,11.30
2022-10-31T10:32:53.126Z,10.80
2022-10-31T10:35:28.464Z,10.10
2022-10-31T10:38:01.411Z,13.50
2022-10-31T10:40:29.631Z,12.70
2022-10-31T10:43:22.481Z,14.10
2022-10-31T10:46:25.372Z,10.30
2022-10-31T10:48:59.665Z,12.20
2022-10-31T10:51:58.264Z,10.40
2022-10-31T10:54:44.441Z,12.60
2022-10-31T10:57:14.454Z,13.40
2022-10-31T10:59:43.897Z,12.30
2022-10-31T11:02:32.774Z,13.10
2022-10-31T11:05:02.445Z,11.10
2022-10-31T11:07:40.355Z,12.30
2022-10-31T11:10:15.291Z,11.00
2022-10-31T11:12:43.656Z,13.80
2022-10-31T11:15:23.901Z,10.60
2022-10-31T11:17:56.901Z,12.10
2022-10-31T11:20:31.726Z,10.70
2022-10-31T11:23:17.509Z,14.40
2022-10-31T11:26:02.819Z,11.20
2022-10-31T11:28:31.661Z,11.30
2022-10-31T11:31:07.617Z,12.80
2022-10-31T11:33:38.661Z,9.20
2022-10-31T11:36:20.363Z,12.80
2022-10-31T11:38:47.726Z,13.70
2022-10-31T11:41:17.789Z,12.50
2022-10-31T11:43:52.588Z,11.40
2022-10-31T11:46:42.440Z,14.00
2022-10-31T11:49:22.180Z,10.30
2022-10-31T11:51:54.350Z,16.70
2022-10-31T11:54:26.006Z,11.20
2022-10-31T11:56:53.359Z,12.70
2022-10-31T11:59:32.209Z,12.60
2022-10-31T12:02:02.356Z,12.20
2022-10-31T12:04:34.369Z,12.60
2022-10-31T12:07:01.820Z,12.20
2022-10-31T12:09:31.647Z,11.90
2022-10-31T12:12:12.295Z,15.10
2022-10-31T12:15:13.549Z,11.00
2022-10-31T12:17:46.518Z,11.40
2022-10-31T12:20:38.886Z,11.00
2022-10-31T12:23:25.477Z,12.30
2022-10-31T12:26:15.032Z,14.20
2022-10-31T12:29:07.087Z,12.30
2022-10-31T12:31:54.526Z,12.00
2022-10-31T12:35:19.446Z,9.70
2022-10-31T12:38:05.425Z,13.30
2022-10-31T12:40:57.883Z,11.10
2022-10-31T12:44:07.106Z,11.50
2022-10-31T12:46:40.387Z,11.70
2022-10-31T12:49:58.727Z,11.30
2022-10-31T12:52:33.658Z,10.70
2022-10-31T12:55:11.244Z,12.10
2022-10-31T12:57:44.608Z,12.40
2022-10-31T13:00:19.367Z,10.50
2022-10-31T13:02:58.381Z,13.80
2022-10-31T13:05:35.485Z,10.40
2022-10-31T13:08:13.309Z,15.60
2022-10-31T13:10:46.742Z,11.80
2022-10-31T13:13:20.407Z,12.80
2022-10-31T13:15:51.157Z,12.40
2022-10-31T13:18:47.155Z,12.70
2022-10-31T13:21:20.456Z,12.20
2022-10-31T13:23:52.250Z,16.00
2022-10-31T13:26:33.462Z,14.30
2022-10-31T13:29:37.916Z,14.40
2022-10-31T13:32:11.094Z,15.60
2022-10-31T13:34:44.988Z,15.80
2022-10-31T13:37:36.430Z,14.10
2022-10-31T13:40:46.375Z,15.40
2022-10-31T13:43:42.787Z,15.80
2022-10-31T13:46:40.528Z,13.00
2022-10-31T13:49:26.790Z,12.30
2022-10-31T13:51:54.643Z,14.00
2022-10-31T13:54:33.977Z,16.40
2022-10-31T13:57:02.067Z,15.40
2022-10-31T13:59:32.687Z,12.00
2022-10-31T14:02:02.455Z,15.10
2022-10-31T14:04:38.225Z,12.80
2022-10-31T14:07:17.836Z,17.20
2022-10-31T14:09:57.602Z,10.70
2022-10-31T14:12:40.564Z,11.50
2022-10-31T14:15:14.166Z,15.50
2022-10-31T14:17:48.473Z,14.30
2022-10-31T14:20:15.717Z,15.50
2022-10-31T14:22:43.388Z,13.90
2022-10-31T14:25:29.649Z,13.90
2022-10-31T14:27:59.615Z,14.80
2022-10-31T14:30:29.113Z,13.10
2022-10-31T14:33:01.994Z,14.60
2022-10-31T14:35:59.247Z,13.70
2022-10-31T14:39:03.887Z,11.80
2022-10-31T14:41:50.578Z,14.20
2022-10-31T14:44:31.349Z,12.80
2022-10-31T14:47:16.254Z,15.20
2022-10-31T14:50:01.797Z,12.40
2022-10-31T14:52:29.247Z,15.50
2022-10-31T14:55:00.184Z,14.30
2022-10-31T14:57:31.125Z,13.10
2022-10-31T15:00:07.073Z,17.10
2022-10-31T15:02:56.877Z,14.10
2022-10-31T15:05:24.344Z,14.90
2022-10-31T15:07:59.253Z,15.20
2022-10-31T15:10:28.467Z,12.30
2022-10-31T15:12:55.775Z,18.50
2022-10-31T15:15:27.601Z,14.50
2022-10-31T15:17:57.995Z,15.80
2022-10-31T15:20:30.780Z,15.10
2022-10-31T15:22:59.681Z,13.70
2022-10-31T15:25:30.164Z,15.50
2022-10-31T15:27:57.329Z,15.80
2022-10-31T15:30:27.589Z,14.20
2022-10-31T15:32:58.964Z,16.70
2022-10-31T15:35:31.225Z,15.90
2022-10-31T15:38:00.546Z,20.00
2022-10-31T15:40:29.464Z,17.00
2022-10-31T15:43:03.125Z,18.00
2022-10-31T15:45:31.720Z,16.60
2022-10-31T15:48:01.603Z,21.20
2022-10-31T15:50:33.553Z,20.20
2022-10-31T15:53:01.598Z,18.70
2022-10-31T15:55:31.299Z,18.30
2022-10-31T15:58:00.598Z,22.20
2022-10-31T16:00:35.324Z,18.20
2022-10-31T16:03:21.236Z,16.90
2022-10-31T16:06:00.072Z,17.40
2022-10-31T16:08:30.258Z,18.40
2022-10-31T16:11:00.686Z,20.10
2022-10-31T16:13:30.732Z,18.70
2022-10-31T16:16:34.174Z,15.40
2022-10-31T16:19:02.933Z,18.80
2022-10-31T16:21:33.257Z,18.90
2022-10-31T16:24:06.241Z,17.90
2022-10-31T16:26:34.373Z,19.50
2022-10-31T16:29:04.747Z,15.30
2022-10-31T16:31:39.111Z,17.00
2022-10-31T16:34:23.734Z,16.10
2022-10-31T16:36:53.538Z,21.80
2022-10-31T16:39:20.971Z,20.80
2022-10-31T16:41:52.699Z,16.30
2022-10-31T16:44:27.633Z,20.40
2022-10-31T16:47:14.959Z,20.10
2022-10-31T16:49:43.542Z,18.00
2022-10-31T16:52:17.460Z,16.70
2022-10-31T16:54:45.210Z,16.60
2022-10-31T16:57:21.136Z,13.60
2022-10-31T16:59:50.170Z,15.90
2022-10-31T17:02:18.354Z,17.10
2022-10-31T17:04:45.708Z,17.90
2022-10-31T17:07:13.165Z,19.60
2022-10-31T17:09:40.505Z,17.90
2022-10-31T17:12:11.053Z,16.90
2022-10-31T17:14:38.385Z,18.50
2022-10-31T17:17:06.553Z,17.40
2022-10-31T17:19:35.466Z,17.40
2022-10-31T17:22:03.954Z,12.20
2022-10-31T17:24:31.406Z,14.60
2022-10-31T17:26:58.743Z,15.60
2022-10-31T17:29:25.990Z,16.10
2022-10-31T17:31:53.784Z,18.40
2022-10-31T17:34:21.115Z,20.00
2022-10-31T17:36:52.650Z,19.20
2022-10-31T17:39:21.194Z,14.80
2022-10-31T17:41:52.934Z,14.20
2022-10-31T17:44:20.910Z,17.30
2022-10-31T17:46:48.746Z,21.10
2022-10-31T17:49:16.303Z,18.20
2022-10-31T17:51:44.361Z,19.60
2022-10-31T17:54:12.546Z,19.70
2022-10-31T17:56:39.835Z,17.60
2022-10-31T17:59:07.760Z,16.30
2022-10-31T18:01:35.654Z,15.70
2022-10-31T18:04:03.711Z,18.70
2022-10-31T18:06:31.368Z,18.50
2022-10-31T18:09:03.966Z,24.20
2022-10-31T18:11:31.941Z,28.00
2022-10-31T18:14:00.965Z,24.70
2022-10-31T18:16:28.900Z,18.00
2022-10-31T18:19:02.257Z,21.20
2022-10-31T18:21:30.043Z,18.30
2022-10-31T18:24:00.197Z,24.40
2022-10-31T18:26:29.368Z,22.10
2022-10-31T18:28:56.892Z,16.30
2022-10-31T18:31:26.119Z,18.60
2022-10-31T18:33:57.755Z,20.50
2022-10-31T18:36:25.827Z,21.70
2022-10-31T18:38:55.685Z,18.90
2022-10-31T18:41:23.516Z,22.60
2022-10-31T18:43:51.836Z,21.70
2022-10-31T18:46:20.866Z,23.90
2022-10-31T18:48:49.066Z,27.20
2022-10-31T18:51:19.267Z,28.00
2022-10-31T18:53:54.985Z,20.10
2022-10-31T18:56:24.019Z,42.90
2022-10-31T18:58:52.106Z,33.10
2022-10-31T19:01:21.504Z,47.00
2022-10-31T19:03:56.752Z,21.10
2022-10-31T19:06:28.642Z,22.30
2022-10-31T19:09:01.669Z,16.20
2022-10-31T19:11:29.026Z,22.30
2022-10-31T19:13:57.731Z,35.60
2022-10-31T19:16:26.194Z,38.50
2022-10-31T19:18:56.767Z,42.20
2022-10-31T19:21:24.793Z,36.30
2022-10-31T19:23:54.453Z,32.70
2022-10-31T19:26:22.084Z,32.80
2022-10-31T19:28:50.276Z,40.50
2022-10-31T19:31:19.986Z,33.50
2022-10-31T19:33:47.506Z,35.40
2022-10-31T19:36:17.322Z,28.10
2022-10-31T19:38:47.367Z,28.90
2022-10-31T19:41:18.072Z,26.50
2022-10-31T19:43:46.028Z,31.70
2022-10-31T19:46:22.132Z,27.40
2022-10-31T19:49:01.526Z,32.50
2022-10-31T19:51:29.016Z,28.70
2022-10-31T19:53:56.860Z,25.60
2022-10-31T19:56:25.822Z,30.10
2022-10-31T19:58:53.690Z,25.90
2022-10-31T20:01:23.567Z,32.80
2022-10-31T20:03:52.148Z,30.60
2022-10-31T20:06:25.577Z,33.10
2022-10-31T20:08:54.395Z,29.50
2022-10-31T20:11:23.957Z,31.20
2022-10-31T20:13:51.250Z,35.90
2022-10-31T20:16:18.611Z,30.80
2022-10-31T20:18:47.309Z,32.00
2022-10-31T20:21:18.077Z,39.40
2022-10-31T20:23:48.355Z,46.50
2022-10-31T20:26:18.430Z,36.80
2022-10-31T20:28:46.944Z,32.60
2022-10-31T20:31:20.604Z,38.00
2022-10-31T20:33:49.487Z,63.10
2022-10-31T20:36:23.160Z,55.70
2022-10-31T20:38:52.987Z,51.60
2022-10-31T20:41:21.573Z,46.00
2022-10-31T20:43:49.359Z,38.80
2022-10-31T20:46:20.351Z,37.30
2022-10-31T20:48:47.960Z,35.90
2022-10-31T20:51:24.314Z,47.00
2022-10-31T20:53:54.628Z,29.70
2022-10-31T20:56:24.483Z,28.90
2022-10-31T20:58:53.104Z,27.60
2022-10-31T21:01:23.444Z,27.90
2022-10-31T21:03:52.976Z,30.00
2022-10-31T21:06:21.977Z,31.60
2022-10-31T21:08:51.126Z,34.10
2022-10-31T21:11:21.598Z,34.40
2022-10-31T21:13:49.401Z,34.20
2022-10-31T21:16:43.168Z,24.40
2022-10-31T21:19:10.838Z,30.00
2022-10-31T21:21:38.029Z,27.10
2022-10-31T21:24:08.549Z,32.80
2022-10-31T21:26:38.948Z,37.10
2022-10-31T21:29:08.923Z,36.30
2022-10-31T21:31:37.478Z,35.40
2022-10-31T21:34:05.504Z,35.90
2022-10-31T21:36:34.084Z,32.50
2022-10-31T21:39:01.346Z,35.50
2022-10-31T21:41:28.921Z,35.60
2022-10-31T21:43:56.563Z,41.90
2022-10-31T21:46:26.443Z,41.50
2022-10-31T21:48:53.908Z,42.30
2022-10-31T21:51:23.430Z,45.70
2022-10-31T21:54:10.111Z,42.90
2022-10-31T21:56:38.124Z,41.20
2022-10-31T21:59:06.311Z,42.50
2022-10-31T22:01:34.500Z,36.90
2022-10-31T22:04:01.902Z,36.90
2022-10-31T22:06:30.885Z,36.20
2022-10-31T22:09:03.591Z,39.20
2022-10-31T22:11:30.947Z,41.00
2022-10-31T22:14:01.723Z,37.40
2022-10-31T22:16:30.125Z,38.90
2022-10-31T22:18:59.662Z,39.80
2022-10-31T22:21:28.326Z,40.40
2022-10-31T22:24:03.328Z,37.20
2022-10-31T22:26:32.890Z,38.30
2022-10-31T22:29:03.464Z,37.40
2022-10-31T22:31:31.837Z,42.90
2022-10-31T22:33:59.685Z,44.60
2022-10-31T22:36:28.669Z,48.30
2022-10-31T22:38:56.515Z,49.50
2022-10-31T22:41:26.076Z,35.50
2022-10-31T22:43:54.344Z,45.60
2022-10-31T22:46:27.388Z,36.20
2022-10-31T22:49:10.623Z,39.90
2022-10-31T22:51:39.658Z,32.00
2022-10-31T22:54:15.713Z,39.70
2022-10-31T22:56:42.873Z,38.00
2022-10-31T22:59:13.776Z,31.80
2022-10-31T23:01:41.256Z,31.20
2022-10-31T23:04:09.134Z,27.50
2022-10-31T23:06:37.763Z,30.20
2022-10-31T23:09:07.687Z,37.10
2022-10-31T23:11:38.100Z,35.00
2022-10-31T23:14:11.005Z,39.90
2022-10-31T23:16:51.488Z,36.40
2022-10-31T23:19:27.938Z,39.20
2022-10-31T23:22:02.372Z,38.50
2022-10-31T23:24:33.741Z,40.30
2022-10-31T23:27:08.924Z,38.20
2022-10-31T23:29:43.547Z,37.40
2022-10-31T23:32:21.010Z,35.50
2022-10-31T23:34:50.079Z,39.90
2022-10-31T23:37:18.921Z,37.70
2022-10-31T23:39:46.386Z,33.40
2022-10-31T23:42:14.343Z,34.10
2022-10-31T23:44:41.750Z,31.10
2022-10-31T23:47:09.392Z,33.10
2022-10-31T23:49:36.827Z,40.80
2022-10-31T23:52:05.101Z,36.20
2022-10-31T23:54:33.068Z,34.60
2022-10-31T23:57:00.446Z,36.40
2022-10-31T23:59:29.356Z,41.40
